sensor_id;sensor_type;location;lat;lon;timestamp;pressure;altitude;pressure_sealevel;temperature;humidity
15272;BME280;7737;51.578;7.268;2022-09-27T00:00:37;99017.03;;;11.36;100.00
15272;BME280;7737;51.578;7.268;2022-09-27T00:03:06;99013.31;;;11.27;100.00
15272;BME280;7737;51.578;7.268;2022-09-27T00:05:32;99006.91;;;11.30;100.00
15272;BME280;7737;51.578;7.268;2022-09-27T00:07:59;99016.06;;;11.26;100.00
15272;BME280;7737;51.578;7.268;2022-09-27T00:10:26;99025.63;;;11.28;100.00
15272;BME280;7737;51.578;7.268;2022-09-27T00:12:54;99031.94;;;11.38;100.00
15272;BME280;7737;51.578;7.268;2022-09-27T00:15:21;99029.59;;;11.34;100.00
15272;BME280;7737;51.578;7.268;2022-09-27T00:17:47;99030.59;;;11.22;100.00
15272;BME280;7737;51.578;7.268;2022-09-27T00:20:16;99033.13;;;11.23;100.00
15272;BME280;7737;51.578;7.268;2022-09-27T00:22:43;99042.06;;;11.33;100.00
15272;BME280;7737;51.578;7.268;2022-09-27T00:25:10;99037.50;;;11.35;100.00
15272;BME280;7737;51.578;7.268;2022-09-27T00:27:36;99039.91;;;11.27;100.00
15272;BME280;7737;51.578;7.268;2022-09-27T00:30:05;99038.59;;;11.33;100.00
15272;BME280;7737;51.578;7.268;2022-09-27T00:32:32;99041.09;;;11.23;100.00
15272;BME280;7737;51.578;7.268;2022-09-27T00:34:58;99051.25;;;11.18;100.00
15272;BME280;7737;51.578;7.268;2022-09-27T00:37:25;99044.75;;;11.22;100.00
15272;BME280;7737;51.578;7.268;2022-09-27T00:39:51;99046.06;;;11.17;100.00
15272;BME280;7737;51.578;7.268;2022-09-27T00:42:18;99048.59;;;11.18;100.00
15272;BME280;7737;51.578;7.268;2022-09-27T00:45:14;99056.81;;;11.15;100.00
15272;BME280;7737;51.578;7.268;2022-09-27T00:47:46;99052.00;;;11.09;100.00
15272;BME280;7737;51.578;7.268;2022-09-27T00:50:21;99055.84;;;11.16;100.00
15272;BME280;7737;51.578;7.268;2022-09-27T00:52:56;99052.09;;;11.08;100.00
15272;BME280;7737;51.578;7.268;2022-09-27T00:55:28;99049.34;;;11.09;100.00
15272;BME280;7737;51.578;7.268;2022-09-27T00:57:55;99059.72;;;11.01;100.00
15272;BME280;7737;51.578;7.268;2022-09-27T01:00:23;99060.31;;;11.05;100.00
15272;BME280;7737;51.578;7.268;2022-09-27T01:02:52;99060.47;;;11.14;100.00
15272;BME280;7737;51.578;7.268;2022-09-27T01:05:23;99053.41;;;11.02;100.00
15272;BME280;7737;51.578;7.268;2022-09-27T01:07:50;99056.72;;;11.17;100.00
15272;BME280;7737;51.578;7.268;2022-09-27T01:10:21;99065.53;;;11.17;100.00
15272;BME280;7737;51.578;7.268;2022-09-27T01:12:57;99059.59;;;11.02;100.00
15272;BME280;7737;51.578;7.268;2022-09-27T01:15:34;99075.31;;;11.06;100.00
15272;BME280;7737;51.578;7.268;2022-09-27T01:18:16;99067.81;;;11.11;100.00
15272;BME280;7737;51.578;7.268;2022-09-27T01:21:06;99071.94;;;11.04;100.00
15272;BME280;7737;51.578;7.268;2022-09-27T01:26:41;99071.19;;;11.01;100.00
15272;BME280;7737;51.578;7.268;2022-09-27T01:29:14;99064.19;;;11.00;100.00
15272;BME280;7737;51.578;7.268;2022-09-27T01:31:51;99074.47;;;11.05;100.00
15272;BME280;7737;51.578;7.268;2022-09-27T01:34:25;99073.97;;;11.00;100.00
15272;BME280;7737;51.578;7.268;2022-09-27T01:37:05;99066.38;;;11.07;100.00
15272;BME280;7737;51.578;7.268;2022-09-27T01:39:41;99073.03;;;11.01;100.00
15272;BME280;7737;51.578;7.268;2022-09-27T01:42:14;99073.75;;;11.03;100.00
15272;BME280;7737;51.578;7.268;2022-09-27T01:44:49;99072.88;;;11.02;100.00
15272;BME280;7737;51.578;7.268;2022-09-27T01:47:21;99065.75;;;11.03;100.00
15272;BME280;7737;51.578;7.268;2022-09-27T01:49:52;99067.34;;;11.06;100.00
15272;BME280;7737;51.578;7.268;2022-09-27T01:52:26;99064.19;;;11.00;100.00
15272;BME280;7737;51.578;7.268;2022-09-27T01:54:55;99072.03;;;11.02;100.00
15272;BME280;7737;51.578;7.268;2022-09-27T01:57:26;99071.91;;;10.92;100.00
15272;BME280;7737;51.578;7.268;2022-09-27T01:59:56;99069.25;;;10.92;100.00
15272;BME280;7737;51.578;7.268;2022-09-27T02:02:27;99067.22;;;10.96;100.00
15272;BME280;7737;51.578;7.268;2022-09-27T02:04:59;99070.81;;;10.95;100.00
15272;BME280;7737;51.578;7.268;2022-09-27T02:07:28;99078.56;;;10.98;100.00
15272;BME280;7737;51.578;7.268;2022-09-27T02:10:00;99072.63;;;10.94;100.00
15272;BME280;7737;51.578;7.268;2022-09-27T02:12:35;99074.94;;;10.99;100.00
15272;BME280;7737;51.578;7.268;2022-09-27T02:15:08;99078.09;;;10.93;100.00
15272;BME280;7737;51.578;7.268;2022-09-27T02:17:42;99085.91;;;10.94;100.00
15272;BME280;7737;51.578;7.268;2022-09-27T02:20:14;99083.50;;;10.91;100.00
15272;BME280;7737;51.578;7.268;2022-09-27T02:22:48;99086.06;;;10.93;100.00
15272;BME280;7737;51.578;7.268;2022-09-27T02:25:20;99080.97;;;10.90;100.00
15272;BME280;7737;51.578;7.268;2022-09-27T02:27:53;99081.19;;;10.87;100.00
15272;BME280;7737;51.578;7.268;2022-09-27T02:30:23;99083.16;;;10.96;100.00
15272;BME280;7737;51.578;7.268;2022-09-27T02:32:51;99086.78;;;10.95;100.00
15272;BME280;7737;51.578;7.268;2022-09-27T02:35:21;99085.31;;;10.91;100.00
15272;BME280;7737;51.578;7.268;2022-09-27T02:37:49;99091.25;;;10.94;100.00
15272;BME280;7737;51.578;7.268;2022-09-27T02:40:16;99086.78;;;10.95;100.00
15272;BME280;7737;51.578;7.268;2022-09-27T02:42:44;99094.97;;;10.92;100.00
15272;BME280;7737;51.578;7.268;2022-09-27T02:45:13;99094.03;;;10.93;100.00
15272;BME280;7737;51.578;7.268;2022-09-27T02:47:49;99098.59;;;10.80;100.00
15272;BME280;7737;51.578;7.268;2022-09-27T02:50:43;99104.63;;;10.82;100.00
15272;BME280;7737;51.578;7.268;2022-09-27T02:53:21;99109.81;;;10.83;100.00
15272;BME280;7737;51.578;7.268;2022-09-27T02:55:59;99107.91;;;10.85;100.00
15272;BME280;7737;51.578;7.268;2022-09-27T02:58:34;99104.91;;;10.90;100.00
15272;BME280;7737;51.578;7.268;2022-09-27T03:01:07;99103.66;;;10.83;100.00
15272;BME280;7737;51.578;7.268;2022-09-27T03:03:43;99101.13;;;10.81;100.00
15272;BME280;7737;51.578;7.268;2022-09-27T03:06:15;99095.66;;;10.72;100.00
15272;BME280;7737;51.578;7.268;2022-09-27T03:08:44;99097.34;;;10.73;100.00
15272;BME280;7737;51.578;7.268;2022-09-27T03:11:11;99110.59;;;10.62;100.00
15272;BME280;7737;51.578;7.268;2022-09-27T03:13:37;99106.47;;;10.58;100.00
15272;BME280;7737;51.578;7.268;2022-09-27T03:16:04;99116.66;;;10.64;100.00
15272;BME280;7737;51.578;7.268;2022-09-27T03:18:31;99112.06;;;10.66;100.00
15272;BME280;7737;51.578;7.268;2022-09-27T03:20:58;99112.19;;;10.64;100.00
15272;BME280;7737;51.578;7.268;2022-09-27T03:23:26;99114.28;;;10.72;100.00
15272;BME280;7737;51.578;7.268;2022-09-27T03:25:52;99110.38;;;10.65;100.00
15272;BME280;7737;51.578;7.268;2022-09-27T03:28:19;99111.56;;;10.61;100.00
15272;BME280;7737;51.578;7.268;2022-09-27T03:30:46;99117.25;;;10.67;100.00
15272;BME280;7737;51.578;7.268;2022-09-27T03:33:13;99116.94;;;10.72;100.00
15272;BME280;7737;51.578;7.268;2022-09-27T03:35:40;99119.22;;;10.76;100.00
15272;BME280;7737;51.578;7.268;2022-09-27T03:38:08;99118.25;;;10.66;100.00
15272;BME280;7737;51.578;7.268;2022-09-27T03:40:36;99113.88;;;10.65;100.00
15272;BME280;7737;51.578;7.268;2022-09-27T03:43:03;99112.28;;;10.63;100.00
15272;BME280;7737;51.578;7.268;2022-09-27T03:45:30;99108.50;;;10.54;100.00
15272;BME280;7737;51.578;7.268;2022-09-27T03:47:56;99117.06;;;10.47;100.00
15272;BME280;7737;51.578;7.268;2022-09-27T03:50:23;99112.88;;;10.55;100.00
15272;BME280;7737;51.578;7.268;2022-09-27T03:52:49;99121.28;;;10.49;100.00
15272;BME280;7737;51.578;7.268;2022-09-27T03:55:16;99119.22;;;10.42;100.00
15272;BME280;7737;51.578;7.268;2022-09-27T03:57:45;99123.94;;;10.49;100.00
15272;BME280;7737;51.578;7.268;2022-09-27T04:00:13;99123.81;;;10.39;100.00
15272;BME280;7737;51.578;7.268;2022-09-27T04:02:40;99133.00;;;10.47;100.00
15272;BME280;7737;51.578;7.268;2022-09-27T04:05:07;99133.13;;;10.45;100.00
15272;BME280;7737;51.578;7.268;2022-09-27T04:07:34;99132.63;;;10.40;100.00
15272;BME280;7737;51.578;7.268;2022-09-27T04:10:02;99129.84;;;10.42;100.00
15272;BME280;7737;51.578;7.268;2022-09-27T04:12:29;99135.38;;;10.38;100.00
15272;BME280;7737;51.578;7.268;2022-09-27T04:14:57;99139.00;;;10.37;100.00
15272;BME280;7737;51.578;7.268;2022-09-27T04:17:24;99132.22;;;10.33;100.00
15272;BME280;7737;51.578;7.268;2022-09-27T04:19:51;99132.34;;;10.32;100.00
15272;BME280;7737;51.578;7.268;2022-09-27T04:22:18;99135.09;;;10.30;100.00
15272;BME280;7737;51.578;7.268;2022-09-27T04:24:44;99137.31;;;10.36;100.00
15272;BME280;7737;51.578;7.268;2022-09-27T04:27:11;99140.91;;;10.35;100.00
15272;BME280;7737;51.578;7.268;2022-09-27T04:29:38;99137.09;;;10.39;100.00
15272;BME280;7737;51.578;7.268;2022-09-27T04:32:08;99147.94;;;10.36;100.00
15272;BME280;7737;51.578;7.268;2022-09-27T04:34:35;99146.13;;;10.37;100.00
15272;BME280;7737;51.578;7.268;2022-09-27T04:37:19;99151.09;;;10.42;100.00
15272;BME280;7737;51.578;7.268;2022-09-27T04:39:45;99153.03;;;10.39;100.00
15272;BME280;7737;51.578;7.268;2022-09-27T04:42:13;99149.63;;;10.37;100.00
15272;BME280;7737;51.578;7.268;2022-09-27T04:44:40;99151.09;;;10.42;100.00
15272;BME280;7737;51.578;7.268;2022-09-27T04:47:06;99153.13;;;10.38;100.00
15272;BME280;7737;51.578;7.268;2022-09-27T04:49:34;99146.47;;;10.32;100.00
15272;BME280;7737;51.578;7.268;2022-09-27T04:52:01;99154.69;;;10.40;100.00
15272;BME280;7737;51.578;7.268;2022-09-27T04:54:27;99160.25;;;10.37;100.00
15272;BME280;7737;51.578;7.268;2022-09-27T04:56:54;99162.41;;;10.32;100.00
15272;BME280;7737;51.578;7.268;2022-09-27T04:59:21;99158.25;;;10.28;100.00
15272;BME280;7737;51.578;7.268;2022-09-27T05:01:47;99162.84;;;10.26;100.00
15272;BME280;7737;51.578;7.268;2022-09-27T05:04:14;99171.59;;;10.16;100.00
15272;BME280;7737;51.578;7.268;2022-09-27T05:06:42;99176.00;;;10.28;100.00
15272;BME280;7737;51.578;7.268;2022-09-27T05:09:08;99169.75;;;10.29;100.00
15272;BME280;7737;51.578;7.268;2022-09-27T05:11:35;99175.16;;;10.27;100.00
15272;BME280;7737;51.578;7.268;2022-09-27T05:14:02;99177.81;;;10.27;100.00
15272;BME280;7737;51.578;7.268;2022-09-27T05:16:29;99171.75;;;10.25;100.00
15272;BME280;7737;51.578;7.268;2022-09-27T05:18:55;99173.34;;;10.28;100.00
15272;BME280;7737;51.578;7.268;2022-09-27T05:21:22;99177.50;;;10.32;100.00
15272;BME280;7737;51.578;7.268;2022-09-27T05:23:50;99181.66;;;10.23;100.00
15272;BME280;7737;51.578;7.268;2022-09-27T05:26:16;99174.84;;;10.19;100.00
15272;BME280;7737;51.578;7.268;2022-09-27T05:28:43;99184.41;;;10.22;100.00
15272;BME280;7737;51.578;7.268;2022-09-27T05:31:11;99181.38;;;10.15;100.00
15272;BME280;7737;51.578;7.268;2022-09-27T05:33:38;99187.06;;;10.22;100.00
15272;BME280;7737;51.578;7.268;2022-09-27T05:36:06;99184.41;;;10.22;100.00
15272;BME280;7737;51.578;7.268;2022-09-27T05:38:33;99183.06;;;10.16;100.00
15272;BME280;7737;51.578;7.268;2022-09-27T05:41:02;99191.56;;;10.21;100.00
15272;BME280;7737;51.578;7.268;2022-09-27T05:43:29;99193.66;;;10.29;100.00
15272;BME280;7737;51.578;7.268;2022-09-27T05:45:56;99185.78;;;10.27;100.00
15272;BME280;7737;51.578;7.268;2022-09-27T05:48:23;99193.88;;;10.26;100.00
15272;BME280;7737;51.578;7.268;2022-09-27T05:50:49;99195.44;;;10.28;100.00
15272;BME280;7737;51.578;7.268;2022-09-27T05:53:15;99189.91;;;10.31;100.00
15272;BME280;7737;51.578;7.268;2022-09-27T05:55:42;99206.38;;;10.36;100.00
15272;BME280;7737;51.578;7.268;2022-09-27T05:58:10;99199.13;;;10.38;100.00
15272;BME280;7737;51.578;7.268;2022-09-27T06:00:40;99199.25;;;10.37;100.00
15272;BME280;7737;51.578;7.268;2022-09-27T06:03:07;99195.16;;;10.44;100.00
15272;BME280;7737;51.578;7.268;2022-09-27T06:05:37;99198.91;;;10.42;100.00
15272;BME280;7737;51.578;7.268;2022-09-27T06:08:06;99198.75;;;10.32;100.00
15272;BME280;7737;51.578;7.268;2022-09-27T06:10:33;99193.59;;;10.42;100.00
15272;BME280;7737;51.578;7.268;2022-09-27T06:13:00;99200.84;;;10.39;100.00
15272;BME280;7737;51.578;7.268;2022-09-27T06:15:30;99197.97;;;10.43;100.00
15272;BME280;7737;51.578;7.268;2022-09-27T06:18:01;99194.53;;;10.40;100.00
15272;BME280;7737;51.578;7.268;2022-09-27T06:20:28;99199.34;;;10.35;100.00
15272;BME280;7737;51.578;7.268;2022-09-27T06:23:02;99202.00;;;10.35;100.00
15272;BME280;7737;51.578;7.268;2022-09-27T06:25:29;99204.91;;;10.32;100.00
15272;BME280;7737;51.578;7.268;2022-09-27T06:27:56;99201.91;;;10.37;100.00
15272;BME280;7737;51.578;7.268;2022-09-27T06:30:22;99199.34;;;10.35;100.00
15272;BME280;7737;51.578;7.268;2022-09-27T06:32:54;99207.00;;;10.40;100.00
15272;BME280;7737;51.578;7.268;2022-09-27T06:35:21;99205.72;;;10.46;100.00
15272;BME280;7737;51.578;7.268;2022-09-27T06:37:49;99203.50;;;10.39;100.00
15272;BME280;7737;51.578;7.268;2022-09-27T06:40:15;99213.13;;;10.40;100.00
15272;BME280;7737;51.578;7.268;2022-09-27T06:42:42;99211.97;;;10.45;100.00
15272;BME280;7737;51.578;7.268;2022-09-27T06:45:09;99214.28;;;10.49;100.00
15272;BME280;7737;51.578;7.268;2022-09-27T06:47:35;99207.38;;;10.47;100.00
15272;BME280;7737;51.578;7.268;2022-09-27T06:50:05;99218.44;;;10.40;100.00
15272;BME280;7737;51.578;7.268;2022-09-27T06:52:31;99222.94;;;10.40;100.00
15272;BME280;7737;51.578;7.268;2022-09-27T06:54:59;99230.56;;;10.45;100.00
15272;BME280;7737;51.578;7.268;2022-09-27T06:57:25;99226.09;;;10.45;100.00
15272;BME280;7737;51.578;7.268;2022-09-27T07:00:11;99226.09;;;10.45;100.00
15272;BME280;7737;51.578;7.268;2022-09-27T07:02:51;99232.50;;;10.43;100.00
15272;BME280;7737;51.578;7.268;2022-09-27T07:05:19;99231.00;;;10.38;100.00
15272;BME280;7737;51.578;7.268;2022-09-27T07:07:46;99231.00;;;10.38;100.00
15272;BME280;7737;51.578;7.268;2022-09-27T07:10:14;99229.53;;;10.34;100.00
15272;BME280;7737;51.578;7.268;2022-09-27T07:12:42;99235.06;;;10.31;100.00
15272;BME280;7737;51.578;7.268;2022-09-27T07:15:11;99236.13;;;10.29;100.00
15272;BME280;7737;51.578;7.268;2022-09-27T07:17:38;99238.03;;;10.39;100.00
15272;BME280;7737;51.578;7.268;2022-09-27T07:20:05;99243.53;;;10.36;100.00
15272;BME280;7737;51.578;7.268;2022-09-27T07:22:38;99241.84;;;10.35;100.00
15272;BME280;7737;51.578;7.268;2022-09-27T07:25:05;99240.69;;;10.39;100.00
15272;BME280;7737;51.578;7.268;2022-09-27T07:27:31;99239.31;;;10.34;100.00
15272;BME280;7737;51.578;7.268;2022-09-27T07:29:59;99241.22;;;10.32;100.00
15272;BME280;7737;51.578;7.268;2022-09-27T07:32:25;99247.91;;;10.37;100.00
15272;BME280;7737;51.578;7.268;2022-09-27T07:34:52;99251.28;;;10.39;100.00
15272;BME280;7737;51.578;7.268;2022-09-27T07:37:19;99248.00;;;10.36;100.00
15272;BME280;7737;51.578;7.268;2022-09-27T07:39:47;99254.59;;;10.43;100.00
15272;BME280;7737;51.578;7.268;2022-09-27T07:42:13;99251.97;;;10.54;100.00
15272;BME280;7737;51.578;7.268;2022-09-27T07:44:40;99258.38;;;10.52;100.00
15272;BME280;7737;51.578;7.268;2022-09-27T07:47:06;99256.69;;;10.51;100.00
15272;BME280;7737;51.578;7.268;2022-09-27T07:49:35;99253.63;;;10.44;100.00
15272;BME280;7737;51.578;7.268;2022-09-27T07:52:01;99254.97;;;10.50;100.00
15272;BME280;7737;51.578;7.268;2022-09-27T07:54:28;99264.69;;;10.62;100.00
15272;BME280;7737;51.578;7.268;2022-09-27T07:56:55;99267.91;;;10.67;100.00
15272;BME280;7737;51.578;7.268;2022-09-27T07:59:22;99264.69;;;10.74;100.00
15272;BME280;7737;51.578;7.268;2022-09-27T08:01:49;99270.44;;;10.92;100.00
15272;BME280;7737;51.578;7.268;2022-09-27T08:04:15;99273.31;;;10.89;100.00
15272;BME280;7737;51.578;7.268;2022-09-27T08:06:42;99267.34;;;10.98;100.00
15272;BME280;7737;51.578;7.268;2022-09-27T08:09:08;99275.38;;;11.09;100.00
15272;BME280;7737;51.578;7.268;2022-09-27T08:11:35;99271.16;;;10.94;100.00
15272;BME280;7737;51.578;7.268;2022-09-27T08:14:03;99277.13;;;10.97;100.00
15272;BME280;7737;51.578;7.268;2022-09-27T08:16:32;99283.28;;;10.98;100.00
15272;BME280;7737;51.578;7.268;2022-09-27T08:18:58;99292.84;;;11.00;100.00
15272;BME280;7737;51.578;7.268;2022-09-27T08:21:25;99285.03;;;11.10;100.00
15272;BME280;7737;51.578;7.268;2022-09-27T08:23:51;99284.63;;;11.27;100.00
15272;BME280;7737;51.578;7.268;2022-09-27T08:26:19;99290.38;;;11.21;100.00
15272;BME280;7737;51.578;7.268;2022-09-27T08:28:46;99293.50;;;11.15;100.00
15272;BME280;7737;51.578;7.268;2022-09-27T08:31:13;99294.75;;;11.22;100.00
15272;BME280;7737;51.578;7.268;2022-09-27T08:33:40;99291.22;;;11.45;100.00
15272;BME280;7737;51.578;7.268;2022-09-27T08:36:09;99292.19;;;11.55;100.00
15272;BME280;7737;51.578;7.268;2022-09-27T08:38:36;99293.59;;;11.37;100.00
15272;BME280;7737;51.578;7.268;2022-09-27T08:41:07;99285.31;;;11.53;100.00
15272;BME280;7737;51.578;7.268;2022-09-27T08:43:38;99275.88;;;11.60;100.00
15272;BME280;7737;51.578;7.268;2022-09-27T08:46:20;99279.44;;;11.72;100.00
15272;BME280;7737;51.578;7.268;2022-09-27T08:48:53;99278.94;;;11.67;100.00
15272;BME280;7737;51.578;7.268;2022-09-27T08:51:28;99273.81;;;11.52;100.00
15272;BME280;7737;51.578;7.268;2022-09-27T08:54:00;99272.94;;;11.52;100.00
15272;BME280;7737;51.578;7.268;2022-09-27T08:56:30;99271.97;;;11.42;100.00
15272;BME280;7737;51.578;7.268;2022-09-27T08:59:00;99287.38;;;11.60;100.00
15272;BME280;7737;51.578;7.268;2022-09-27T09:01:33;99279.75;;;11.56;100.00
15272;BME280;7737;51.578;7.268;2022-09-27T09:04:01;99272.81;;;11.42;100.00
15272;BME280;7737;51.578;7.268;2022-09-27T09:06:37;99272.97;;;11.63;100.00
15272;BME280;7737;51.578;7.268;2022-09-27T09:09:14;99269.22;;;11.66;100.00
15272;BME280;7737;51.578;7.268;2022-09-27T09:11:53;99271.72;;;11.80;100.00
15272;BME280;7737;51.578;7.268;2022-09-27T09:14:51;99275.22;;;11.80;100.00
15272;BME280;7737;51.578;7.268;2022-09-27T09:17:34;99273.28;;;11.71;100.00
15272;BME280;7737;51.578;7.268;2022-09-27T09:20:15;99278.97;;;11.78;100.00
15272;BME280;7737;51.578;7.268;2022-09-27T09:23:05;99277.81;;;11.58;100.00
15272;BME280;7737;51.578;7.268;2022-09-27T09:25:41;99276.47;;;11.52;100.00
15272;BME280;7737;51.578;7.268;2022-09-27T09:28:27;99286.59;;;11.47;100.00
15272;BME280;7737;51.578;7.268;2022-09-27T09:31:04;99276.38;;;11.65;100.00
15272;BME280;7737;51.578;7.268;2022-09-27T09:33:35;99284.72;;;11.60;100.00
15272;BME280;7737;51.578;7.268;2022-09-27T09:36:09;99276.84;;;11.59;100.00
15272;BME280;7737;51.578;7.268;2022-09-27T09:38:41;99281.59;;;11.67;100.00
15272;BME280;7737;51.578;7.268;2022-09-27T09:41:15;99274.78;;;11.62;100.00
15272;BME280;7737;51.578;7.268;2022-09-27T09:43:46;99281.09;;;11.61;100.00
15272;BME280;7737;51.578;7.268;2022-09-27T09:46:19;99280.41;;;11.71;100.00
15272;BME280;7737;51.578;7.268;2022-09-27T09:48:53;99272.81;;;11.77;100.00
15272;BME280;7737;51.578;7.268;2022-09-27T09:51:26;99287.56;;;11.81;100.00
15272;BME280;7737;51.578;7.268;2022-09-27T09:53:57;99288.84;;;11.65;100.00
15272;BME280;7737;51.578;7.268;2022-09-27T09:56:29;99287.22;;;11.86;100.00
15272;BME280;7737;51.578;7.268;2022-09-27T09:58:58;99289.63;;;11.78;100.00
15272;BME280;7737;51.578;7.268;2022-09-27T10:01:29;99291.03;;;11.71;100.00
15272;BME280;7737;51.578;7.268;2022-09-27T10:04:01;99287.31;;;11.84;100.00
15272;BME280;7737;51.578;7.268;2022-09-27T10:06:28;99285.50;;;11.74;100.00
15272;BME280;7737;51.578;7.268;2022-09-27T10:08:55;99285.06;;;11.91;100.00
15272;BME280;7737;51.578;7.268;2022-09-27T10:11:24;99282.22;;;11.81;100.00
15272;BME280;7737;51.578;7.268;2022-09-27T10:13:52;99278.50;;;11.73;100.00
15272;BME280;7737;51.578;7.268;2022-09-27T10:16:20;99280.41;;;11.71;100.00
15272;BME280;7737;51.578;7.268;2022-09-27T10:18:48;99295.84;;;11.66;100.00
15272;BME280;7737;51.578;7.268;2022-09-27T10:21:21;99278.44;;;11.61;100.00
15272;BME280;7737;51.578;7.268;2022-09-27T10:24:02;99282.25;;;11.70;100.00
15272;BME280;7737;51.578;7.268;2022-09-27T10:26:29;99278.75;;;11.81;100.00
15272;BME280;7737;51.578;7.268;2022-09-27T10:28:56;99278.44;;;11.61;100.00
15272;BME280;7737;51.578;7.268;2022-09-27T10:31:22;99273.41;;;11.70;100.00
15272;BME280;7737;51.578;7.268;2022-09-27T10:33:54;99273.66;;;12.00;100.00
15272;BME280;7737;51.578;7.268;2022-09-27T10:36:24;99275.88;;;12.17;100.00
15272;BME280;7737;51.578;7.268;2022-09-27T10:38:55;99271.59;;;11.92;100.00
15272;BME280;7737;51.578;7.268;2022-09-27T10:41:24;99268.69;;;11.84;100.00
15272;BME280;7737;51.578;7.268;2022-09-27T10:43:52;99265.66;;;11.89;100.00
15272;BME280;7737;51.578;7.268;2022-09-27T10:46:24;99276.72;;;11.60;100.00
15272;BME280;7737;51.578;7.268;2022-09-27T10:49:06;99273.34;;;11.58;100.00
15272;BME280;7737;51.578;7.268;2022-09-27T10:51:35;99278.88;;;11.90;100.00
15272;BME280;7737;51.578;7.268;2022-09-27T10:54:02;99276.44;;;11.87;100.00
15272;BME280;7737;51.578;7.268;2022-09-27T10:56:30;99275.00;;;11.83;100.00
15272;BME280;7737;51.578;7.268;2022-09-27T10:58:58;99273.91;;;11.86;100.00
15272;BME280;7737;51.578;7.268;2022-09-27T11:01:25;99277.28;;;11.88;100.00
15272;BME280;7737;51.578;7.268;2022-09-27T11:04:04;99276.56;;;11.97;100.00
15272;BME280;7737;51.578;7.268;2022-09-27T11:06:31;99276.81;;;11.94;100.00
15272;BME280;7737;51.578;7.268;2022-09-27T11:09:16;99271.97;;;11.88;100.00
15272;BME280;7737;51.578;7.268;2022-09-27T11:11:44;99274.25;;;11.70;100.00
15272;BME280;7737;51.578;7.268;2022-09-27T11:14:22;99275.03;;;11.59;100.00
15272;BME280;7737;51.578;7.268;2022-09-27T11:17:05;99270.03;;;11.90;100.00
15272;BME280;7737;51.578;7.268;2022-09-27T11:19:51;99271.75;;;12.02;100.00
15272;BME280;7737;51.578;7.268;2022-09-27T11:22:40;99265.84;;;11.63;100.00
15272;BME280;7737;51.578;7.268;2022-09-27T11:25:16;99263.72;;;11.69;100.00
15272;BME280;7737;51.578;7.268;2022-09-27T11:27:56;99270.53;;;11.60;100.00
15272;BME280;7737;51.578;7.268;2022-09-27T11:30:31;99263.72;;;11.69;100.00
15272;BME280;7737;51.578;7.268;2022-09-27T11:33:17;99261.97;;;11.56;100.00
15272;BME280;7737;51.578;7.268;2022-09-27T11:35:57;99260.09;;;11.70;100.00
15272;BME280;7737;51.578;7.268;2022-09-27T11:38:30;99263.16;;;11.52;100.00
15272;BME280;7737;51.578;7.268;2022-09-27T11:41:15;99261.38;;;11.64;100.00
15272;BME280;7737;51.578;7.268;2022-09-27T11:46:38;99266.41;;;11.45;100.00
15272;BME280;7737;51.578;7.268;2022-09-27T11:49:30;99265.28;;;11.36;100.00
15272;BME280;7737;51.578;7.268;2022-09-27T11:52:19;99267.72;;;11.39;100.00
15272;BME280;7737;51.578;7.268;2022-09-27T11:55:02;99266.06;;;11.60;100.00
15272;BME280;7737;51.578;7.268;2022-09-27T11:57:40;99264.00;;;11.53;100.00
15272;BME280;7737;51.578;7.268;2022-09-27T12:00:14;99258.16;;;11.72;100.00
15272;BME280;7737;51.578;7.268;2022-09-27T12:02:55;99258.59;;;11.66;100.00
15272;BME280;7737;51.578;7.268;2022-09-27T12:05:35;99255.13;;;11.76;100.00
15272;BME280;7737;51.578;7.268;2022-09-27T12:11:11;99256.22;;;11.74;100.00
15272;BME280;7737;51.578;7.268;2022-09-27T12:13:45;99255.63;;;11.81;100.00
15272;BME280;7737;51.578;7.268;2022-09-27T12:16:15;99259.25;;;11.69;100.00
15272;BME280;7737;51.578;7.268;2022-09-27T12:18:43;99255.63;;;11.81;100.00
15272;BME280;7737;51.578;7.268;2022-09-27T12:21:12;99251.50;;;11.77;100.00
15272;BME280;7737;51.578;7.268;2022-09-27T12:23:42;99252.88;;;11.94;100.00
15272;BME280;7737;51.578;7.268;2022-09-27T12:26:15;99260.59;;;12.30;100.00
15272;BME280;7737;51.578;7.268;2022-09-27T12:28:48;99254.31;;;12.09;100.00
15272;BME280;7737;51.578;7.268;2022-09-27T12:31:19;99253.59;;;11.96;100.00
15272;BME280;7737;51.578;7.268;2022-09-27T12:33:52;99260.34;;;12.11;100.00
15272;BME280;7737;51.578;7.268;2022-09-27T12:36:26;99253.09;;;11.91;100.00
15272;BME280;7737;51.578;7.268;2022-09-27T12:38:57;99247.53;;;11.94;100.00
15272;BME280;7737;51.578;7.268;2022-09-27T12:41:28;99252.59;;;12.08;100.00
15272;BME280;7737;51.578;7.268;2022-09-27T12:43:58;99246.03;;;12.34;100.00
15272;BME280;7737;51.578;7.268;2022-09-27T12:46:35;99249.19;;;12.39;100.00
15272;BME280;7737;51.578;7.268;2022-09-27T12:49:10;99260.69;;;12.51;100.00
15272;BME280;7737;51.578;7.268;2022-09-27T12:51:41;99251.84;;;12.39;100.00
15272;BME280;7737;51.578;7.268;2022-09-27T12:54:48;99248.50;;;12.04;100.00
15272;BME280;7737;51.578;7.268;2022-09-27T12:57:28;99260.47;;;11.98;100.00
15272;BME280;7737;51.578;7.268;2022-09-27T13:00:05;99250.91;;;12.29;100.00
15272;BME280;7737;51.578;7.268;2022-09-27T13:02:59;99246.28;;;12.31;100.00
15272;BME280;7737;51.578;7.268;2022-09-27T13:05:49;99247.25;;;12.41;100.00
15272;BME280;7737;51.578;7.268;2022-09-27T13:08:31;99251.13;;;12.37;100.00
15272;BME280;7737;51.578;7.268;2022-09-27T13:11:09;99252.13;;;12.25;100.00
15272;BME280;7737;51.578;7.268;2022-09-27T13:13:40;99251.03;;;12.28;100.00
15272;BME280;7737;51.578;7.268;2022-09-27T13:16:08;99243.75;;;12.30;100.00
15272;BME280;7737;51.578;7.268;2022-09-27T13:18:53;99237.56;;;12.40;100.00
15272;BME280;7737;51.578;7.268;2022-09-27T13:21:57;99236.53;;;12.63;100.00
15272;BME280;7737;51.578;7.268;2022-09-27T13:24:39;99236.84;;;12.38;100.00
15272;BME280;7737;51.578;7.268;2022-09-27T13:27:34;99232.25;;;12.29;100.00
15272;BME280;7737;51.578;7.268;2022-09-27T13:33:40;99237.72;;;12.16;100.00